Time;durP1;ratioP1;P1;durP2;ratioP2;P2;SDS_P1;SDS_P2;PMS_P1;PMS_P2;Temp;Humidity;BMP_temperature;BMP_pressure;BME280_temperature;BME280_humidity;BME280_pressure;Samples;Min_cycle;Max_cycle;Signal;HPM_P1;HPM_P2
2023/02/13 00:00:00;;;;;;;4.10;0.75;;;;;;;;;;5004265;28;20144;-60
2023/02/13 00:02:27;;;;;;;3.53;0.88;;;;;;;;;;5003171;28;20150;-63
2023/02/13 00:04:53;;;;;;;2.40;0.65;;;;;;;;;;5004416;28;20054;-62
2023/02/13 00:07:20;;;;;;;5.50;0.70;;;;;;;;;;5002512;28;20041;-62
2023/02/13 00:09:46;;;;;;;3.42;0.82;;;;;;;;;;5006608;28;20043;-60
2023/02/13 00:12:13;;;;;;;2.78;0.90;;;;;;;;;;5008184;28;20079;-62
2023/02/13 00:14:40;;;;;;;2.55;0.70;;;;;;;;;;5007017;28;20041;-61
2023/02/13 00:17:06;;;;;;;3.15;0.90;;;;;;;;;;5005934;28;20041;-62
2023/02/13 00:19:34;;;;;;;3.78;1.00;;;;;;;;;;5006905;28;20084;-59
2023/02/13 00:22:00;;;;;;;3.35;0.90;;;;;;;;;;5008429;28;20368;-60
2023/02/13 00:24:27;;;;;;;3.20;0.88;;;;;;;;;;5007853;28;20425;-63
2023/02/13 00:26:54;;;;;;;6.38;1.00;;;;;;;;;;5007656;28;20928;-61
2023/02/13 00:29:20;;;;;;;3.70;0.93;;;;;;;;;;5004803;28;20053;-62
2023/02/13 00:31:47;;;;;;;4.53;1.42;;;;;;;;;;5006550;28;20467;-62
2023/02/13 00:34:14;;;;;;;4.13;1.05;;;;;;;;;;5007787;28;20410;-60
2023/02/13 00:36:40;;;;;;;3.72;1.05;;;;;;;;;;5015280;28;20030;-60
2023/02/13 00:39:07;;;;;;;3.33;1.00;;;;;;;;;;5007190;28;20041;-61
2023/02/13 00:41:33;;;;;;;3.45;1.13;;;;;;;;;;5015087;28;20041;-60
2023/02/13 00:44:00;;;;;;;2.90;0.80;;;;;;;;;;5016561;28;20030;-60
2023/02/13 00:46:27;;;;;;;1.40;0.50;;;;;;;;;;5008139;28;20084;-62
2023/02/13 00:48:53;;;;;;;3.05;0.60;;;;;;;;;;5013416;28;20053;-62
2023/02/13 00:51:20;;;;;;;1.55;0.55;;;;;;;;;;5006766;28;20041;-62
2023/02/13 00:53:46;;;;;;;1.45;0.40;;;;;;;;;;5007902;28;20573;-62
2023/02/13 00:56:13;;;;;;;2.55;0.50;;;;;;;;;;5007804;28;20048;-62
2023/02/13 00:58:40;;;;;;;2.03;0.60;;;;;;;;;;5006271;28;20053;-62
2023/02/13 01:01:06;;;;;;;2.70;0.85;;;;;;;;;;5008749;28;20068;-60
2023/02/13 01:03:33;;;;;;;2.92;0.60;;;;;;;;;;5008587;28;20049;-59
2023/02/13 01:06:00;;;;;;;3.08;0.50;;;;;;;;;;5008853;28;20045;-62
2023/02/13 01:08:27;;;;;;;3.13;0.50;;;;;;;;;;5007969;28;20056;-62
2023/02/13 01:10:54;;;;;;;2.78;0.50;;;;;;;;;;5006607;28;20611;-62
2023/02/13 01:13:21;;;;;;;1.25;0.40;;;;;;;;;;5006540;28;20047;-61
2023/02/13 01:15:48;;;;;;;2.13;0.50;;;;;;;;;;5006214;28;20049;-62
2023/02/13 01:18:15;;;;;;;2.03;0.50;;;;;;;;;;5006807;28;20096;-62
2023/02/13 01:20:45;;;;;;;1.27;0.50;;;;;;;;;;5005975;28;20053;-60
2023/02/13 01:23:12;;;;;;;1.77;0.50;;;;;;;;;;5006144;28;20518;-60
2023/02/13 01:25:42;;;;;;;1.10;0.40;;;;;;;;;;5006386;28;20037;-60
2023/02/13 01:28:09;;;;;;;0.90;0.40;;;;;;;;;;5005320;28;20045;-60
2023/02/13 01:30:36;;;;;;;0.90;0.40;;;;;;;;;;5013964;28;20059;-61
2023/02/13 01:33:02;;;;;;;1.63;0.57;;;;;;;;;;5011601;28;20561;-59
2023/02/13 01:35:29;;;;;;;2.40;0.40;;;;;;;;;;5005545;28;20125;-59
2023/02/13 01:37:55;;;;;;;1.38;0.47;;;;;;;;;;5006322;28;20045;-59
2023/02/13 01:40:22;;;;;;;1.98;0.57;;;;;;;;;;5006463;28;20107;-58
2023/02/13 01:42:49;;;;;;;4.70;0.60;;;;;;;;;;5006056;28;20544;-59
2023/02/13 01:45:15;;;;;;;0.95;0.40;;;;;;;;;;5006588;28;20161;-59
2023/02/13 01:47:44;;;;;;;1.48;0.50;;;;;;;;;;5005545;28;20077;-61
2023/02/13 01:50:15;;;;;;;1.42;0.40;;;;;;;;;;5006650;28;20132;-58
2023/02/13 01:52:43;;;;;;;2.17;0.50;;;;;;;;;;5006340;28;20046;-61
2023/02/13 01:55:10;;;;;;;3.58;0.50;;;;;;;;;;5006853;28;20495;-59
2023/02/13 01:57:38;;;;;;;2.08;0.50;;;;;;;;;;5005214;28;20177;-61
2023/02/13 02:00:10;;;;;;;1.45;0.50;;;;;;;;;;5006768;28;20034;-59
2023/02/13 02:02:39;;;;;;;4.15;0.50;;;;;;;;;;5006120;28;21031;-61
2023/02/13 02:05:06;;;;;;;1.00;0.40;;;;;;;;;;5013714;28;20046;-61
2023/02/13 02:07:33;;;;;;;4.65;0.70;;;;;;;;;;5012940;28;20522;-61
2023/02/13 02:10:02;;;;;;;3.38;0.52;;;;;;;;;;5015669;28;20060;-59
2023/02/13 02:12:40;;;;;;;2.70;0.65;;;;;;;;;;5015232;28;20331;-60
2023/02/13 02:15:08;;;;;;;2.35;0.60;;;;;;;;;;5014073;28;20049;-58
2023/02/13 02:17:34;;;;;;;4.90;0.70;;;;;;;;;;5012933;28;20045;-59
2023/02/13 02:20:04;;;;;;;1.70;0.50;;;;;;;;;;5004910;28;20046;-61
2023/02/13 02:22:36;;;;;;;1.60;0.55;;;;;;;;;;5005547;28;20114;-60
2023/02/13 02:25:21;;;;;;;1.70;0.60;;;;;;;;;;5005496;28;20494;-59
2023/02/13 02:28:06;;;;;;;3.05;0.60;;;;;;;;;;5014831;28;20370;-60
2023/02/13 02:30:51;;;;;;;2.95;0.55;;;;;;;;;;5006554;28;20447;-61
2023/02/13 02:33:26;;;;;;;1.80;0.50;;;;;;;;;;5004711;28;20111;-60
2023/02/13 02:36:00;;;;;;;3.50;0.70;;;;;;;;;;5004386;28;20046;-60
2023/02/13 02:38:33;;;;;;;3.83;0.93;;;;;;;;;;5013050;28;20038;-59
2023/02/13 02:41:07;;;;;;;3.13;0.50;;;;;;;;;;5011269;28;20398;-58
2023/02/13 02:43:33;;;;;;;1.25;0.50;;;;;;;;;;5004357;28;20034;-60
2023/02/13 02:46:09;;;;;;;1.45;0.50;;;;;;;;;;5005201;28;20041;-61
2023/02/13 02:51:26;;;;;;;1.80;0.45;;;;;;;;;;5004186;28;20227;-61
2023/02/13 02:54:02;;;;;;;1.50;0.50;;;;;;;;;;5004999;28;20529;-62
2023/02/13 02:56:37;;;;;;;1.35;0.50;;;;;;;;;;5005180;28;20041;-62
2023/02/13 03:07:25;;;;;;;1.83;0.50;;;;;;;;;;5002791;28;20057;-60
2023/02/13 03:24:14;;;;;;;1.98;0.50;;;;;;;;;;5023454;28;20076;-62
2023/02/13 03:26:50;;;;;;;0.88;0.30;;;;;;;;;;5022560;28;20124;-62
2023/02/13 03:32:23;;;;;;;5.70;0.73;;;;;;;;;;5021327;28;20351;-62
2023/02/13 03:38:01;;;;;;;2.05;0.60;;;;;;;;;;5021854;28;20394;-60
2023/02/13 03:40:30;;;;;;;7.15;0.75;;;;;;;;;;5024515;28;20473;-59
2023/02/13 03:43:03;;;;;;;2.25;0.63;;;;;;;;;;5023838;28;20244;-61
2023/02/13 03:45:56;;;;;;;6.35;1.23;;;;;;;;;;5022780;28;20042;-60
2023/02/13 03:51:38;;;;;;;4.50;1.60;;;;;;;;;;5000984;28;20052;-61
2023/02/13 03:54:16;;;;;;;4.32;1.33;;;;;;;;;;5022433;28;20124;-61
2023/02/13 03:59:31;;;;;;;4.18;1.20;;;;;;;;;;5022981;28;20397;-62
2023/02/13 04:02:00;;;;;;;4.18;1.23;;;;;;;;;;5024550;28;20644;-61
2023/02/13 04:04:59;;;;;;;6.40;1.30;;;;;;;;;;5022101;28;20037;-62
2023/02/13 04:07:29;;;;;;;4.97;1.45;;;;;;;;;;4995662;28;20041;-61
2023/02/13 04:09:58;;;;;;;5.05;1.30;;;;;;;;;;5023702;28;20068;-61
2023/02/13 04:12:30;;;;;;;4.20;1.40;;;;;;;;;;5021836;28;20046;-61
2023/02/13 04:14:57;;;;;;;6.68;1.45;;;;;;;;;;5024068;28;20091;-60
2023/02/13 04:17:26;;;;;;;4.00;1.40;;;;;;;;;;5023291;28;20074;-58
2023/02/13 04:19:53;;;;;;;5.55;1.40;;;;;;;;;;5023825;28;21160;-61
2023/02/13 04:22:20;;;;;;;3.60;1.00;;;;;;;;;;5024181;28;20481;-61
2023/02/13 04:24:46;;;;;;;3.65;0.93;;;;;;;;;;5025182;28;20111;-62
2023/02/13 04:27:15;;;;;;;5.35;1.40;;;;;;;;;;5023994;28;21093;-60
2023/02/13 04:29:42;;;;;;;4.82;1.50;;;;;;;;;;5024633;28;20050;-61
2023/02/13 04:32:10;;;;;;;3.13;1.05;;;;;;;;;;5024271;28;20386;-61
2023/02/13 04:34:37;;;;;;;4.65;1.20;;;;;;;;;;5023412;28;20122;-63
2023/02/13 04:37:03;;;;;;;4.28;1.10;;;;;;;;;;5022312;28;20513;-61
2023/02/13 04:39:30;;;;;;;3.78;1.13;;;;;;;;;;5022918;28;20042;-60
2023/02/13 04:41:56;;;;;;;12.35;1.42;;;;;;;;;;5024583;28;20046;-60
2023/02/13 04:44:23;;;;;;;3.55;1.17;;;;;;;;;;5022623;28;20627;-61
2023/02/13 04:46:50;;;;;;;3.00;0.98;;;;;;;;;;5023158;28;20092;-59
2023/02/13 04:49:16;;;;;;;3.25;1.08;;;;;;;;;;5023261;28;21005;-61
2023/02/13 04:51:43;;;;;;;7.43;1.40;;;;;;;;;;5023051;28;20071;-60
2023/02/13 04:54:10;;;;;;;10.13;1.35;;;;;;;;;;5023397;28;20094;-60
2023/02/13 04:56:37;;;;;;;3.58;1.30;;;;;;;;;;5024982;28;20084;-60
2023/02/13 04:59:04;;;;;;;4.55;1.40;;;;;;;;;;5027784;28;20065;-60
2023/02/13 05:01:30;;;;;;;3.20;0.93;;;;;;;;;;5026185;28;20044;-62
2023/02/13 05:03:57;;;;;;;5.93;1.30;;;;;;;;;;5026778;28;20057;-61
2023/02/13 05:06:23;;;;;;;6.25;1.30;;;;;;;;;;5025577;28;20057;-62
2023/02/13 05:08:50;;;;;;;7.25;1.45;;;;;;;;;;5024844;28;20060;-60
2023/02/13 05:11:17;;;;;;;5.32;1.38;;;;;;;;;;5027001;28;20041;-61
2023/02/13 05:13:43;;;;;;;3.20;1.10;;;;;;;;;;5027247;28;20053;-61
2023/02/13 05:16:10;;;;;;;3.10;1.02;;;;;;;;;;5027068;28;20682;-61
2023/02/13 05:18:37;;;;;;;3.50;1.38;;;;;;;;;;5025337;28;20441;-60
2023/02/13 05:23:49;;;;;;;6.32;2.17;;;;;;;;;;5024033;28;20087;-61
2023/02/13 05:26:16;;;;;;;3.90;1.20;;;;;;;;;;5025808;28;20041;-62
2023/02/13 05:29:27;;;;;;;4.95;1.10;;;;;;;;;;5027767;28;20129;-61
2023/02/13 05:31:29;;;;;;;5.88;1.73;;;;;;;;;;5023665;28;21313;-59
2023/02/13 05:33:56;;;;;;;3.15;1.15;;;;;;;;;;5033795;28;20356;-61
2023/02/13 05:36:22;;;;;;;4.80;1.45;;;;;;;;;;5036888;28;20048;-63
2023/02/13 05:38:49;;;;;;;9.45;1.45;;;;;;;;;;5032485;28;20037;-63
2023/02/13 05:41:16;;;;;;;4.35;1.55;;;;;;;;;;5025644;28;20536;-63
2023/02/13 05:43:42;;;;;;;4.80;1.88;;;;;;;;;;5028800;28;20038;-60
2023/02/13 05:46:09;;;;;;;5.90;2.17;;;;;;;;;;5028142;28;20045;-61
2023/02/13 05:48:36;;;;;;;10.35;2.40;;;;;;;;;;5026192;28;20077;-61
2023/02/13 05:51:03;;;;;;;4.82;1.70;;;;;;;;;;5027708;28;20045;-61
2023/02/13 05:53:29;;;;;;;8.02;1.85;;;;;;;;;;5027076;28;20379;-60
2023/02/13 05:55:56;;;;;;;4.45;1.50;;;;;;;;;;5027372;28;20041;-61
2023/02/13 05:58:23;;;;;;;10.48;2.00;;;;;;;;;;5025363;28;20511;-60
2023/02/13 06:00:49;;;;;;;3.67;1.50;;;;;;;;;;5027511;28;20039;-60
2023/02/13 06:03:16;;;;;;;6.78;1.50;;;;;;;;;;5026808;28;20124;-59
2023/02/13 06:05:43;;;;;;;2.92;0.90;;;;;;;;;;5027332;28;20511;-61
2023/02/13 06:08:09;;;;;;;2.50;0.73;;;;;;;;;;5026578;28;20091;-60
2023/02/13 06:10:36;;;;;;;3.05;0.70;;;;;;;;;;5028286;28;20406;-57
2023/02/13 06:13:03;;;;;;;4.22;1.00;;;;;;;;;;5026959;28;20069;-58
2023/02/13 06:15:29;;;;;;;2.88;0.80;;;;;;;;;;5027225;28;21121;-58
2023/02/13 06:17:56;;;;;;;3.05;0.93;;;;;;;;;;5026591;28;20038;-59
2023/02/13 06:20:22;;;;;;;3.00;0.88;;;;;;;;;;5026180;28;20532;-60
2023/02/13 06:22:52;;;;;;;6.43;0.90;;;;;;;;;;5026725;28;20049;-60
2023/02/13 06:25:19;;;;;;;3.45;1.02;;;;;;;;;;5026886;28;20059;-59
2023/02/13 06:27:45;;;;;;;4.03;1.10;;;;;;;;;;5025072;28;20040;-60
2023/02/13 06:30:12;;;;;;;3.15;1.00;;;;;;;;;;5026240;28;20036;-60
2023/02/13 06:32:39;;;;;;;3.85;1.13;;;;;;;;;;5025480;28;20068;-60
2023/02/13 06:35:06;;;;;;;4.88;1.65;;;;;;;;;;5025690;28;20088;-61
2023/02/13 06:37:33;;;;;;;6.68;1.77;;;;;;;;;;5024069;28;20063;-61
2023/02/13 06:39:59;;;;;;;5.00;1.55;;;;;;;;;;5025083;28;20041;-61
2023/02/13 06:42:26;;;;;;;3.40;1.25;;;;;;;;;;5024575;28;20646;-60
2023/02/13 06:44:53;;;;;;;4.63;1.30;;;;;;;;;;5025060;28;20083;-60
2023/02/13 06:47:19;;;;;;;5.35;1.17;;;;;;;;;;5023023;28;20061;-60
2023/02/13 06:49:46;;;;;;;3.20;0.90;;;;;;;;;;5025746;28;20041;-60
2023/02/13 06:52:13;;;;;;;3.78;0.70;;;;;;;;;;5026223;28;20052;-60
2023/02/13 06:54:39;;;;;;;1.67;0.60;;;;;;;;;;5025063;28;20043;-61
2023/02/13 06:57:06;;;;;;;2.35;0.80;;;;;;;;;;5024390;28;20145;-60
2023/02/13 06:59:32;;;;;;;2.88;0.70;;;;;;;;;;5025804;28;20499;-60
2023/02/13 07:01:59;;;;;;;2.28;0.60;;;;;;;;;;5024829;28;20215;-60
2023/02/13 07:04:27;;;;;;;2.35;0.75;;;;;;;;;;5025484;28;20061;-61
2023/02/13 07:06:57;;;;;;;1.98;0.57;;;;;;;;;;5026243;28;20054;-60
2023/02/13 07:09:24;;;;;;;2.40;0.65;;;;;;;;;;5025319;28;20049;-60
2023/02/13 07:11:50;;;;;;;2.55;0.80;;;;;;;;;;5025867;28;20112;-60
2023/02/13 07:14:17;;;;;;;1.92;0.60;;;;;;;;;;5026423;28;20041;-59
2023/02/13 07:16:43;;;;;;;1.73;0.55;;;;;;;;;;5022901;28;20214;-61
2023/02/13 07:19:10;;;;;;;2.30;0.70;;;;;;;;;;5023631;28;20053;-61
2023/02/13 07:21:37;;;;;;;3.50;0.90;;;;;;;;;;5026089;28;20060;-61
2023/02/13 07:24:04;;;;;;;2.80;0.82;;;;;;;;;;5024670;28;20049;-60
2023/02/13 07:26:30;;;;;;;2.47;0.68;;;;;;;;;;5023761;28;20056;-61
2023/02/13 07:28:57;;;;;;;2.47;0.73;;;;;;;;;;5024790;28;20140;-61
2023/02/13 07:31:24;;;;;;;1.92;0.68;;;;;;;;;;5024270;28;20759;-61
2023/02/13 07:33:50;;;;;;;1.92;0.63;;;;;;;;;;5025376;28;20044;-61
2023/02/13 07:36:17;;;;;;;3.22;0.65;;;;;;;;;;5024618;28;20049;-60
2023/02/13 07:38:43;;;;;;;4.63;0.77;;;;;;;;;;5023912;28;20034;-61
2023/02/13 07:41:10;;;;;;;5.28;0.75;;;;;;;;;;5025912;28;20179;-60
2023/02/13 07:43:37;;;;;;;4.13;0.82;;;;;;;;;;5024923;28;20094;-60
2023/02/13 07:46:04;;;;;;;3.17;0.80;;;;;;;;;;5024437;28;20469;-60
2023/02/13 07:48:31;;;;;;;3.00;0.70;;;;;;;;;;5024329;28;20049;-61
2023/02/13 07:51:01;;;;;;;2.28;0.68;;;;;;;;;;5025363;28;20093;-61
2023/02/13 07:53:28;;;;;;;3.50;0.80;;;;;;;;;;5023959;28;20116;-60
2023/02/13 07:55:54;;;;;;;2.75;0.85;;;;;;;;;;5025858;28;20037;-64
2023/02/13 07:58:21;;;;;;;3.35;0.85;;;;;;;;;;5023090;28;20045;-62
2023/02/13 08:00:48;;;;;;;4.20;0.82;;;;;;;;;;5023989;28;20044;-61
2023/02/13 08:03:15;;;;;;;6.45;0.80;;;;;;;;;;5025487;28;20052;-62
2023/02/13 08:05:41;;;;;;;2.83;0.82;;;;;;;;;;5024943;28;20049;-61
2023/02/13 08:08:08;;;;;;;1.70;0.60;;;;;;;;;;5025574;28;20555;-61
2023/02/13 08:13:20;;;;;;;4.25;0.68;;;;;;;;;;5022897;28;20094;-61
2023/02/13 08:15:46;;;;;;;2.92;0.47;;;;;;;;;;5024068;28;20032;-61
2023/02/13 08:18:13;;;;;;;1.88;0.60;;;;;;;;;;5023506;28;20033;-61
2023/02/13 08:20:40;;;;;;;3.47;0.60;;;;;;;;;;5023193;28;20041;-61
2023/02/13 08:23:07;;;;;;;1.33;0.50;;;;;;;;;;5025251;28;20048;-61
2023/02/13 08:25:34;;;;;;;3.17;0.60;;;;;;;;;;5023928;28;20700;-61
2023/02/13 08:28:01;;;;;;;1.50;0.40;;;;;;;;;;5022715;28;20203;-61
2023/02/13 08:30:28;;;;;;;1.63;0.50;;;;;;;;;;5024524;28;20157;-61
2023/02/13 08:32:55;;;;;;;1.98;0.50;;;;;;;;;;5027578;28;20127;-61
2023/02/13 08:35:25;;;;;;;1.73;0.47;;;;;;;;;;5027852;28;20052;-61
2023/02/13 08:37:52;;;;;;;1.63;0.50;;;;;;;;;;5028133;28;20044;-61
2023/02/13 08:40:19;;;;;;;1.80;0.50;;;;;;;;;;5028640;28;20037;-61
2023/02/13 08:42:45;;;;;;;1.77;0.50;;;;;;;;;;5027712;28;20067;-59
2023/02/13 08:45:12;;;;;;;2.30;0.50;;;;;;;;;;5027094;28;20083;-61
2023/02/13 08:47:39;;;;;;;1.55;0.55;;;;;;;;;;5025509;28;20045;-61
2023/02/13 08:50:06;;;;;;;1.38;0.50;;;;;;;;;;5028727;28;20091;-61
2023/02/13 08:52:32;;;;;;;3.22;0.50;;;;;;;;;;5028124;28;20045;-61
2023/02/13 08:54:59;;;;;;;1.45;0.50;;;;;;;;;;5028308;28;20041;-60
2023/02/13 08:57:26;;;;;;;0.98;0.38;;;;;;;;;;5028048;28;20342;-60
2023/02/13 08:59:52;;;;;;;2.30;0.50;;;;;;;;;;5027357;28;20044;-62
2023/02/13 09:02:19;;;;;;;1.80;0.50;;;;;;;;;;5028129;28;20033;-61
2023/02/13 09:04:46;;;;;;;1.30;0.40;;;;;;;;;;5027932;28;20036;-60
2023/02/13 09:07:12;;;;;;;1.23;0.40;;;;;;;;;;5027694;28;20087;-61
2023/02/13 09:09:39;;;;;;;1.77;0.38;;;;;;;;;;5027706;28;20077;-60
2023/02/13 09:12:06;;;;;;;0.93;0.40;;;;;;;;;;5028209;28;20167;-60
2023/02/13 09:14:33;;;;;;;1.05;0.40;;;;;;;;;;5026179;28;20099;-60
2023/02/13 09:17:00;;;;;;;0.68;0.40;;;;;;;;;;5027423;28;20060;-58
2023/02/13 09:19:26;;;;;;;1.17;0.40;;;;;;;;;;5027037;28;20033;-59
2023/02/13 09:21:53;;;;;;;1.05;0.40;;;;;;;;;;5027994;28;20041;-61
2023/02/13 09:24:20;;;;;;;1.80;0.40;;;;;;;;;;5026325;28;20033;-60
2023/02/13 09:26:46;;;;;;;1.25;0.38;;;;;;;;;;5027847;28;20045;-62
2023/02/13 09:29:13;;;;;;;0.85;0.32;;;;;;;;;;5025687;28;20049;-60
2023/02/13 09:31:39;;;;;;;1.25;0.40;;;;;;;;;;5026039;28;20064;-59
2023/02/13 09:34:06;;;;;;;1.67;0.50;;;;;;;;;;5027630;28;20777;-60
2023/02/13 09:36:33;;;;;;;1.20;0.50;;;;;;;;;;5027646;28;20040;-59
2023/02/13 09:38:59;;;;;;;3.13;0.30;;;;;;;;;;5027123;28;20034;-60
2023/02/13 09:41:32;;;;;;;2.85;0.50;;;;;;;;;;5029064;28;20045;-61
2023/02/13 09:44:01;;;;;;;0.80;0.40;;;;;;;;;;5028683;28;20041;-59
2023/02/13 09:46:31;;;;;;;1.25;0.40;;;;;;;;;;5024509;28;20037;-60
2023/02/13 09:49:00;;;;;;;2.40;0.43;;;;;;;;;;5026693;28;20148;-60
2023/02/13 09:51:27;;;;;;;2.13;0.45;;;;;;;;;;5025715;28;20102;-62
2023/02/13 09:53:57;;;;;;;1.13;0.40;;;;;;;;;;5025927;28;20972;-61
2023/02/13 09:56:36;;;;;;;0.98;0.40;;;;;;;;;;5025710;28;20048;-61
2023/02/13 09:59:06;;;;;;;0.75;0.30;;;;;;;;;;5026047;28;20513;-61
2023/02/13 10:01:35;;;;;;;1.33;0.40;;;;;;;;;;5024307;28;20406;-60
2023/02/13 10:04:14;;;;;;;1.25;0.40;;;;;;;;;;5026816;28;20044;-60
2023/02/13 10:06:49;;;;;;;1.00;0.40;;;;;;;;;;5026088;28;20127;-60
2023/02/13 10:09:20;;;;;;;1.15;0.40;;;;;;;;;;5026942;28;20532;-60
2023/02/13 10:11:47;;;;;;;1.27;0.40;;;;;;;;;;5026770;28;20043;-60
2023/02/13 10:14:13;;;;;;;1.90;0.50;;;;;;;;;;5027977;28;20045;-60
2023/02/13 10:16:43;;;;;;;0.60;0.40;;;;;;;;;;5024394;28;20517;-61
2023/02/13 10:19:15;;;;;;;0.70;0.30;;;;;;;;;;5026891;28;21128;-60
2023/02/13 10:22:02;;;;;;;0.80;0.40;;;;;;;;;;5026636;28;20041;-60
2023/02/13 10:24:39;;;;;;;0.85;0.38;;;;;;;;;;5025808;28;20130;-61
2023/02/13 10:27:15;;;;;;;3.22;0.40;;;;;;;;;;5026220;28;20517;-60
2023/02/13 10:32:35;;;;;;;1.17;0.40;;;;;;;;;;5024676;28;20048;-61
2023/02/13 10:35:03;;;;;;;1.48;0.50;;;;;;;;;;5024821;28;20042;-60
2023/02/13 10:37:30;;;;;;;1.13;0.40;;;;;;;;;;5025688;28;20064;-60
2023/02/13 10:39:57;;;;;;;1.10;0.40;;;;;;;;;;5026522;28;20059;-60
2023/02/13 10:42:23;;;;;;;1.65;0.50;;;;;;;;;;5026127;28;20037;-61
2023/02/13 10:45:08;;;;;;;0.93;0.40;;;;;;;;;;5025026;28;20069;-61
2023/02/13 10:47:58;;;;;;;1.02;0.30;;;;;;;;;;5024991;28;20943;-61
2023/02/13 10:50:24;;;;;;;1.00;0.40;;;;;;;;;;5024920;28;20099;-60
2023/02/13 10:53:10;;;;;;;1.17;0.40;;;;;;;;;;5025936;28;20045;-61
2023/02/13 10:55:39;;;;;;;0.93;0.40;;;;;;;;;;5025907;28;20071;-61
2023/02/13 10:58:18;;;;;;;1.08;0.40;;;;;;;;;;5027202;28;20137;-59
2023/02/13 11:00:48;;;;;;;1.33;0.40;;;;;;;;;;5025112;28;20054;-62
2023/02/13 11:03:19;;;;;;;3.72;0.47;;;;;;;;;;5026851;28;20081;-61
2023/02/13 11:05:45;;;;;;;0.70;0.35;;;;;;;;;;5025370;28;20037;-60
2023/02/13 11:08:20;;;;;;;1.13;0.43;;;;;;;;;;5025519;28;20084;-61
2023/02/13 11:10:47;;;;;;;1.02;0.40;;;;;;;;;;5015421;28;20158;-60
2023/02/13 11:13:18;;;;;;;1.00;0.40;;;;;;;;;;5010802;28;20053;-60
2023/02/13 11:15:56;;;;;;;0.88;0.40;;;;;;;;;;5005769;28;20030;-60
2023/02/13 11:18:25;;;;;;;1.80;0.45;;;;;;;;;;5007589;28;20030;-57
2023/02/13 11:21:10;;;;;;;2.72;0.50;;;;;;;;;;5008728;28;20049;-60
2023/02/13 11:23:49;;;;;;;1.27;0.40;;;;;;;;;;5005950;28;20038;-59
2023/02/13 11:26:26;;;;;;;1.60;0.50;;;;;;;;;;5005181;28;20068;-60
2023/02/13 11:29:06;;;;;;;1.58;0.50;;;;;;;;;;5017570;28;20053;-61
2023/02/13 11:31:33;;;;;;;1.48;0.50;;;;;;;;;;5007490;28;20699;-61
2023/02/13 11:34:17;;;;;;;1.05;0.40;;;;;;;;;;5014851;28;20507;-60
2023/02/13 11:36:43;;;;;;;1.02;0.40;;;;;;;;;;5015048;28;20038;-60
2023/02/13 11:39:21;;;;;;;1.13;0.40;;;;;;;;;;5004128;28;20051;-62
2023/02/13 11:41:51;;;;;;;1.88;0.55;;;;;;;;;;5005687;28;20149;-61
2023/02/13 11:44:18;;;;;;;1.13;0.40;;;;;;;;;;5005166;28;20096;-57
2023/02/13 11:46:48;;;;;;;1.42;0.50;;;;;;;;;;5005329;28;20141;-60
2023/02/13 11:49:18;;;;;;;2.50;0.50;;;;;;;;;;5006864;28;20533;-60
2023/02/13 11:51:52;;;;;;;0.95;0.40;;;;;;;;;;5005900;28;20604;-61
2023/02/13 11:54:34;;;;;;;0.88;0.32;;;;;;;;;;5004039;28;20971;-61
2023/02/13 11:57:02;;;;;;;1.45;0.50;;;;;;;;;;5005616;28;20051;-60
2023/02/13 11:59:33;;;;;;;0.90;0.40;;;;;;;;;;5004158;28;20045;-59
2023/02/13 12:02:13;;;;;;;2.17;0.50;;;;;;;;;;5005398;28;20410;-59
2023/02/13 12:04:41;;;;;;;2.63;0.50;;;;;;;;;;5005969;28;20099;-60
2023/02/13 12:07:11;;;;;;;1.45;0.43;;;;;;;;;;5009217;28;20049;-61
2023/02/13 12:09:39;;;;;;;1.70;0.50;;;;;;;;;;5009317;28;20049;-59
2023/02/13 12:12:05;;;;;;;3.72;0.50;;;;;;;;;;5010057;28;20159;-60
2023/02/13 12:14:40;;;;;;;1.67;0.50;;;;;;;;;;5008196;28;20045;-61
2023/02/13 12:17:17;;;;;;;0.95;0.40;;;;;;;;;;5008840;28;20064;-61
2023/02/13 12:19:45;;;;;;;1.90;0.50;;;;;;;;;;5008279;28;20053;-60
2023/02/13 12:22:15;;;;;;;2.30;0.57;;;;;;;;;;5008631;28;20037;-60
2023/02/13 12:24:46;;;;;;;1.05;0.40;;;;;;;;;;5006894;28;20079;-60
2023/02/13 12:27:22;;;;;;;1.92;0.40;;;;;;;;;;5007811;28;20049;-60
2023/02/13 12:30:07;;;;;;;1.40;0.45;;;;;;;;;;5008281;28;20106;-60
2023/02/13 12:32:54;;;;;;;1.02;0.40;;;;;;;;;;5007874;28;20119;-61
2023/02/13 12:35:35;;;;;;;1.17;0.40;;;;;;;;;;5006037;28;20037;-61
2023/02/13 12:38:11;;;;;;;1.25;0.43;;;;;;;;;;5009134;28;20037;-61
2023/02/13 12:40:52;;;;;;;1.52;0.50;;;;;;;;;;5008741;28;20041;-61
2023/02/13 12:43:34;;;;;;;3.90;0.47;;;;;;;;;;5007830;28;20387;-61
2023/02/13 12:46:09;;;;;;;1.00;0.43;;;;;;;;;;5007459;28;20045;-61
2023/02/13 12:48:40;;;;;;;1.38;0.45;;;;;;;;;;5007474;28;20456;-60
2023/02/13 12:51:06;;;;;;;2.20;0.40;;;;;;;;;;5006595;28;20029;-61
2023/02/13 12:53:51;;;;;;;1.40;0.40;;;;;;;;;;5007777;28;20042;-61
2023/02/13 12:56:25;;;;;;;1.52;0.50;;;;;;;;;;5007929;28;20483;-62
2023/02/13 12:59:01;;;;;;;1.67;0.43;;;;;;;;;;5011205;28;20060;-62
2023/02/13 13:01:41;;;;;;;3.47;0.40;;;;;;;;;;5006789;28;20118;-60
2023/02/13 13:04:18;;;;;;;2.10;0.52;;;;;;;;;;5007438;28;20111;-61
2023/02/13 13:06:52;;;;;;;2.28;0.60;;;;;;;;;;5019809;28;20057;-61
2023/02/13 13:09:18;;;;;;;;;;;;;;;;;;5012077;28;20057;-61
2023/02/13 13:11:45;;;;;;;1.80;0.60;;;;;;;;;;5009370;28;20003;-59
2023/02/13 13:14:30;;;;;;;1.15;0.43;;;;;;;;;;5006790;28;20581;-60
2023/02/13 13:16:56;;;;;;;1.10;0.50;;;;;;;;;;5019299;28;20072;-61
2023/02/13 13:19:31;;;;;;;1.50;0.50;;;;;;;;;;5009932;28;20038;-60
2023/02/13 13:21:59;;;;;;;1.85;0.50;;;;;;;;;;5008404;28;20052;-60
2023/02/13 13:24:26;;;;;;;1.08;0.40;;;;;;;;;;5007821;28;20121;-61
2023/02/13 13:26:56;;;;;;;1.02;0.40;;;;;;;;;;5005514;28;20048;-60
2023/02/13 13:29:25;;;;;;;1.77;0.50;;;;;;;;;;5007869;28;20513;-60
2023/02/13 13:31:59;;;;;;;1.63;0.60;;;;;;;;;;5007601;28;20049;-61
2023/02/13 13:34:26;;;;;;;1.42;0.50;;;;;;;;;;5014174;28;20057;-60
2023/02/13 13:37:12;;;;;;;2.40;0.60;;;;;;;;;;5027576;28;20031;-61
2023/02/13 13:40:01;;;;;;;2.88;0.52;;;;;;;;;;5026629;28;20045;-60
2023/02/13 13:42:42;;;;;;;2.67;0.50;;;;;;;;;;5025094;28;20131;-60
2023/02/13 13:45:11;;;;;;;1.13;0.43;;;;;;;;;;5025115;28;20044;-61
2023/02/13 13:47:47;;;;;;;0.82;0.30;;;;;;;;;;5024366;28;20140;-61
2023/02/13 13:50:24;;;;;;;1.83;0.40;;;;;;;;;;5027145;28;20811;-62
2023/02/13 13:53:08;;;;;;;2.97;0.60;;;;;;;;;;5026188;28;20041;-61
2023/02/13 13:56:04;;;;;;;2.63;0.85;;;;;;;;;;5025546;28;20157;-60
2023/02/13 13:58:31;;;;;;;1.92;0.50;;;;;;;;;;5022504;28;20048;-61
2023/02/13 14:01:21;;;;;;;1.08;0.40;;;;;;;;;;5027142;28;20045;-60
2023/02/13 14:03:48;;;;;;;3.28;0.80;;;;;;;;;;5022201;28;20052;-61
2023/02/13 14:06:16;;;;;;;0.90;0.40;;;;;;;;;;5022907;28;20037;-58
2023/02/13 14:08:43;;;;;;;3.30;0.95;;;;;;;;;;5027031;28;20904;-60
2023/02/13 14:11:28;;;;;;;2.65;0.98;;;;;;;;;;5026755;28;20499;-59
2023/02/13 14:13:54;;;;;;;4.28;1.70;;;;;;;;;;5024060;28;20127;-60
2023/02/13 14:16:37;;;;;;;3.97;1.50;;;;;;;;;;5023727;28;20118;-59
2023/02/13 14:19:04;;;;;;;3.40;1.60;;;;;;;;;;5026056;28;21197;-60
2023/02/13 14:21:31;;;;;;;3.50;1.15;;;;;;;;;;5024409;28;20076;-60
2023/02/13 14:24:02;;;;;;;3.47;1.50;;;;;;;;;;5025086;28;20129;-59
2023/02/13 14:26:29;;;;;;;3.25;1.40;;;;;;;;;;5025787;28;20601;-60
2023/02/13 14:28:58;;;;;;;2.65;0.98;;;;;;;;;;5025760;28;20052;-61
2023/02/13 14:31:28;;;;;;;2.95;1.08;;;;;;;;;;5024272;28;20051;-58
2023/02/13 14:33:57;;;;;;;4.60;2.03;;;;;;;;;;5025458;28;22084;-61
2023/02/13 14:36:30;;;;;;;3.03;1.40;;;;;;;;;;5024041;28;20041;-59
2023/02/13 14:39:02;;;;;;;4.20;1.23;;;;;;;;;;5024674;28;20048;-59
2023/02/13 14:41:48;;;;;;;3.53;1.58;;;;;;;;;;5025145;28;20057;-63
2023/02/13 14:44:32;;;;;;;4.25;1.75;;;;;;;;;;5026301;28;20098;-60
2023/02/13 14:47:01;;;;;;;3.00;1.35;;;;;;;;;;5025988;28;20037;-62
2023/02/13 14:49:39;;;;;;;3.97;1.80;;;;;;;;;;5025898;28;20072;-61
2023/02/13 14:52:07;;;;;;;3.22;1.27;;;;;;;;;;5024420;28;20036;-63
2023/02/13 14:54:46;;;;;;;3.28;1.48;;;;;;;;;;5022447;28;20398;-62
2023/02/13 14:57:19;;;;;;;5.13;1.90;;;;;;;;;;5026177;28;20521;-62
2023/02/13 14:59:47;;;;;;;2.97;1.47;;;;;;;;;;5025009;28;20056;-62
2023/02/13 15:02:14;;;;;;;3.75;1.60;;;;;;;;;;5022655;28;20068;-61
2023/02/13 15:04:43;;;;;;;2.88;1.20;;;;;;;;;;5022372;28;20498;-62
2023/02/13 15:07:20;;;;;;;2.85;0.98;;;;;;;;;;5023709;28;20052;-62
2023/02/13 15:09:58;;;;;;;3.05;1.40;;;;;;;;;;5024221;28;20056;-62
2023/02/13 15:12:26;;;;;;;3.25;1.33;;;;;;;;;;5025299;28;20071;-61
2023/02/13 15:14:53;;;;;;;3.50;1.63;;;;;;;;;;5024260;28;20044;-60
2023/02/13 15:17:22;;;;;;;3.72;1.70;;;;;;;;;;5024333;28;20041;-62
2023/02/13 15:19:53;;;;;;;4.53;1.65;;;;;;;;;;5024744;28;20058;-60
2023/02/13 15:22:24;;;;;;;3.58;1.40;;;;;;;;;;5024500;28;20113;-61
2023/02/13 15:24:50;;;;;;;4.93;2.33;;;;;;;;;;5023755;28;20386;-60
2023/02/13 15:27:27;;;;;;;3.08;1.20;;;;;;;;;;5025251;28;20044;-61
2023/02/13 15:30:03;;;;;;;2.88;1.10;;;;;;;;;;5025163;28;20060;-62
2023/02/13 15:32:35;;;;;;;2.70;1.13;;;;;;;;;;5024214;28;20090;-62
2023/02/13 15:35:10;;;;;;;3.40;1.37;;;;;;;;;;5024692;28;20064;-60
2023/02/13 15:37:36;;;;;;;3.15;1.33;;;;;;;;;;5024868;28;20029;-63
2023/02/13 15:40:23;;;;;;;3.97;1.42;;;;;;;;;;5024033;28;20474;-62
2023/02/13 15:42:51;;;;;;;3.00;1.13;;;;;;;;;;5023919;28;20122;-62
2023/02/13 15:45:18;;;;;;;3.08;1.20;;;;;;;;;;5023575;28;20060;-61